sensor_id;sensor_type;location;lat;lon;timestamp;P1;durP1;ratioP1;P2;durP2;ratioP2
34876;SDS011;21086;44.780;17.194;2023-03-07T00:00:58;22.65;;;17.50;;
34876;SDS011;21086;44.780;17.194;2023-03-07T00:03:25;21.52;;;16.58;;
34876;SDS011;21086;44.780;17.194;2023-03-07T00:06:03;26.45;;;20.00;;
34876;SDS011;21086;44.780;17.194;2023-03-07T00:08:34;22.73;;;17.20;;
34876;SDS011;21086;44.780;17.194;2023-03-07T00:11:02;21.88;;;16.40;;
34876;SDS011;21086;44.780;17.194;2023-03-07T00:13:31;21.70;;;16.48;;
34876;SDS011;21086;44.780;17.194;2023-03-07T00:16:03;18.92;;;14.88;;
34876;SDS011;21086;44.780;17.194;2023-03-07T00:18:33;22.33;;;15.38;;
34876;SDS011;21086;44.780;17.194;2023-03-07T00:21:04;17.65;;;14.43;;
34876;SDS011;21086;44.780;17.194;2023-03-07T00:23:33;18.02;;;14.00;;
34876;SDS011;21086;44.780;17.194;2023-03-07T00:26:06;17.75;;;13.48;;
34876;SDS011;21086;44.780;17.194;2023-03-07T00:28:36;18.75;;;13.88;;
34876;SDS011;21086;44.780;17.194;2023-03-07T00:31:04;19.20;;;15.93;;
34876;SDS011;21086;44.780;17.194;2023-03-07T00:33:33;20.67;;;15.18;;
34876;SDS011;21086;44.780;17.194;2023-03-07T00:36:05;19.50;;;13.95;;
34876;SDS011;21086;44.780;17.194;2023-03-07T00:38:33;17.65;;;12.55;;
34876;SDS011;21086;44.780;17.194;2023-03-07T00:41:02;19.83;;;15.13;;
34876;SDS011;21086;44.780;17.194;2023-03-07T00:43:33;21.02;;;15.13;;
34876;SDS011;21086;44.780;17.194;2023-03-07T00:51:22;20.67;;;15.32;;
34876;SDS011;21086;44.780;17.194;2023-03-07T00:53:50;24.33;;;18.77;;
34876;SDS011;21086;44.780;17.194;2023-03-07T00:56:21;23.73;;;17.38;;
34876;SDS011;21086;44.780;17.194;2023-03-07T00:58:50;22.60;;;17.05;;
34876;SDS011;21086;44.780;17.194;2023-03-07T01:01:21;26.80;;;18.58;;
34876;SDS011;21086;44.780;17.194;2023-03-07T01:03:50;26.85;;;17.98;;
34876;SDS011;21086;44.780;17.194;2023-03-07T01:06:28;24.55;;;17.58;;
34876;SDS011;21086;44.780;17.194;2023-03-07T01:08:57;24.30;;;17.73;;
34876;SDS011;21086;44.780;17.194;2023-03-07T01:11:26;27.65;;;19.10;;
34876;SDS011;21086;44.780;17.194;2023-03-07T01:13:55;42.90;;;28.42;;
34876;SDS011;21086;44.780;17.194;2023-03-07T01:16:27;35.13;;;22.63;;
34876;SDS011;21086;44.780;17.194;2023-03-07T01:18:57;24.88;;;18.73;;
34876;SDS011;21086;44.780;17.194;2023-03-07T01:21:31;24.60;;;17.05;;
34876;SDS011;21086;44.780;17.194;2023-03-07T01:24:03;26.00;;;19.42;;
34876;SDS011;21086;44.780;17.194;2023-03-07T01:26:31;25.58;;;18.80;;
34876;SDS011;21086;44.780;17.194;2023-03-07T01:29:00;23.90;;;17.92;;
34876;SDS011;21086;44.780;17.194;2023-03-07T01:31:29;26.20;;;17.65;;
34876;SDS011;21086;44.780;17.194;2023-03-07T01:33:57;16.40;;;12.85;;
34876;SDS011;21086;44.780;17.194;2023-03-07T01:36:27;24.27;;;17.73;;
34876;SDS011;21086;44.780;17.194;2023-03-07T01:38:56;26.60;;;18.55;;
34876;SDS011;21086;44.780;17.194;2023-03-07T01:41:28;22.88;;;17.02;;
34876;SDS011;21086;44.780;17.194;2023-03-07T01:44:01;30.13;;;20.70;;
34876;SDS011;21086;44.780;17.194;2023-03-07T01:49:17;20.98;;;16.60;;
34876;SDS011;21086;44.780;17.194;2023-03-07T01:52:24;26.95;;;17.23;;
34876;SDS011;21086;44.780;17.194;2023-03-07T01:54:51;24.92;;;16.88;;
34876;SDS011;21086;44.780;17.194;2023-03-07T01:57:25;22.70;;;15.10;;
34876;SDS011;21086;44.780;17.194;2023-03-07T02:10:49;16.38;;;12.43;;
34876;SDS011;21086;44.780;17.194;2023-03-07T02:21:37;19.35;;;13.75;;
34876;SDS011;21086;44.780;17.194;2023-03-07T02:36:29;18.73;;;12.88;;
34876;SDS011;21086;44.780;17.194;2023-03-07T02:39:00;19.38;;;12.38;;
34876;SDS011;21086;44.780;17.194;2023-03-07T02:44:20;18.05;;;11.82;;
34876;SDS011;21086;44.780;17.194;2023-03-07T02:46:47;17.42;;;13.68;;
34876;SDS011;21086;44.780;17.194;2023-03-07T02:51:49;13.38;;;10.27;;
34876;SDS011;21086;44.780;17.194;2023-03-07T02:54:16;14.50;;;10.20;;
34876;SDS011;21086;44.780;17.194;2023-03-07T02:56:43;15.60;;;11.50;;
34876;SDS011;21086;44.780;17.194;2023-03-07T03:01:50;16.75;;;10.88;;
34876;SDS011;21086;44.780;17.194;2023-03-07T03:04:17;13.05;;;9.65;;
34876;SDS011;21086;44.780;17.194;2023-03-07T03:06:44;12.48;;;9.45;;
34876;SDS011;21086;44.780;17.194;2023-03-07T03:09:12;15.07;;;11.15;;
34876;SDS011;21086;44.780;17.194;2023-03-07T03:11:39;17.33;;;11.70;;
34876;SDS011;21086;44.780;17.194;2023-03-07T03:14:07;15.38;;;10.77;;
34876;SDS011;21086;44.780;17.194;2023-03-07T03:16:34;15.75;;;11.43;;
34876;SDS011;21086;44.780;17.194;2023-03-07T03:19:01;16.60;;;11.93;;
34876;SDS011;21086;44.780;17.194;2023-03-07T03:21:28;16.35;;;12.38;;
34876;SDS011;21086;44.780;17.194;2023-03-07T03:23:55;19.17;;;13.63;;
34876;SDS011;21086;44.780;17.194;2023-03-07T03:29:12;17.90;;;13.50;;
34876;SDS011;21086;44.780;17.194;2023-03-07T03:31:42;18.75;;;13.25;;
34876;SDS011;21086;44.780;17.194;2023-03-07T03:34:10;20.08;;;14.52;;
34876;SDS011;21086;44.780;17.194;2023-03-07T03:36:38;24.92;;;15.88;;
34876;SDS011;21086;44.780;17.194;2023-03-07T03:39:05;20.55;;;14.27;;
34876;SDS011;21086;44.780;17.194;2023-03-07T03:41:36;15.02;;;11.52;;
34876;SDS011;21086;44.780;17.194;2023-03-07T03:44:03;19.30;;;11.98;;
34876;SDS011;21086;44.780;17.194;2023-03-07T03:46:30;18.75;;;12.50;;
34876;SDS011;21086;44.780;17.194;2023-03-07T03:48:57;17.88;;;11.88;;
34876;SDS011;21086;44.780;17.194;2023-03-07T03:51:24;16.38;;;12.73;;
34876;SDS011;21086;44.780;17.194;2023-03-07T03:53:52;16.00;;;11.50;;
34876;SDS011;21086;44.780;17.194;2023-03-07T03:56:20;15.50;;;11.32;;
34876;SDS011;21086;44.780;17.194;2023-03-07T03:58:50;17.52;;;11.57;;
34876;SDS011;21086;44.780;17.194;2023-03-07T04:03:55;13.38;;;10.02;;
34876;SDS011;21086;44.780;17.194;2023-03-07T04:06:23;17.38;;;12.05;;
34876;SDS011;21086;44.780;17.194;2023-03-07T04:08:53;17.25;;;12.65;;
34876;SDS011;21086;44.780;17.194;2023-03-07T04:11:21;17.95;;;13.38;;
34876;SDS011;21086;44.780;17.194;2023-03-07T04:13:49;36.45;;;23.73;;
34876;SDS011;21086;44.780;17.194;2023-03-07T04:16:17;22.30;;;16.48;;
34876;SDS011;21086;44.780;17.194;2023-03-07T04:18:45;18.25;;;12.63;;
34876;SDS011;21086;44.780;17.194;2023-03-07T04:21:12;17.45;;;12.52;;
34876;SDS011;21086;44.780;17.194;2023-03-07T04:23:39;18.02;;;12.95;;
34876;SDS011;21086;44.780;17.194;2023-03-07T04:26:07;16.60;;;12.48;;
34876;SDS011;21086;44.780;17.194;2023-03-07T04:28:36;17.92;;;12.98;;
34876;SDS011;21086;44.780;17.194;2023-03-07T04:31:15;19.73;;;14.55;;
34876;SDS011;21086;44.780;17.194;2023-03-07T04:33:44;14.68;;;11.63;;
34876;SDS011;21086;44.780;17.194;2023-03-07T04:36:12;17.95;;;12.77;;
34876;SDS011;21086;44.780;17.194;2023-03-07T04:38:41;16.05;;;11.95;;
34876;SDS011;21086;44.780;17.194;2023-03-07T04:41:19;19.45;;;14.02;;
34876;SDS011;21086;44.780;17.194;2023-03-07T04:43:48;16.30;;;12.45;;
34876;SDS011;21086;44.780;17.194;2023-03-07T04:46:15;14.90;;;11.77;;
34876;SDS011;21086;44.780;17.194;2023-03-07T04:48:44;17.83;;;13.55;;
34876;SDS011;21086;44.780;17.194;2023-03-07T04:51:11;15.68;;;11.68;;
34876;SDS011;21086;44.780;17.194;2023-03-07T04:53:38;16.35;;;12.43;;
34876;SDS011;21086;44.780;17.194;2023-03-07T04:56:06;16.58;;;11.77;;
34876;SDS011;21086;44.780;17.194;2023-03-07T04:58:34;16.23;;;11.70;;
34876;SDS011;21086;44.780;17.194;2023-03-07T05:01:02;16.33;;;12.13;;
34876;SDS011;21086;44.780;17.194;2023-03-07T05:03:31;18.50;;;13.10;;
34876;SDS011;21086;44.780;17.194;2023-03-07T05:06:06;20.45;;;13.85;;
34876;SDS011;21086;44.780;17.194;2023-03-07T05:09:04;23.73;;;16.48;;
34876;SDS011;21086;44.780;17.194;2023-03-07T05:11:31;21.88;;;15.52;;
34876;SDS011;21086;44.780;17.194;2023-03-07T05:13:58;25.98;;;18.38;;
34876;SDS011;21086;44.780;17.194;2023-03-07T05:16:25;22.63;;;15.73;;
34876;SDS011;21086;44.780;17.194;2023-03-07T05:18:52;26.02;;;16.90;;
34876;SDS011;21086;44.780;17.194;2023-03-07T05:21:19;28.17;;;18.52;;
34876;SDS011;21086;44.780;17.194;2023-03-07T05:23:46;35.92;;;21.58;;
34876;SDS011;21086;44.780;17.194;2023-03-07T05:26:13;26.40;;;16.98;;
34876;SDS011;21086;44.780;17.194;2023-03-07T05:28:40;25.88;;;17.52;;
34876;SDS011;21086;44.780;17.194;2023-03-07T05:31:07;33.35;;;23.40;;
34876;SDS011;21086;44.780;17.194;2023-03-07T05:33:34;46.05;;;28.90;;
34876;SDS011;21086;44.780;17.194;2023-03-07T05:36:01;42.95;;;27.50;;
34876;SDS011;21086;44.780;17.194;2023-03-07T05:38:29;38.33;;;24.60;;
34876;SDS011;21086;44.780;17.194;2023-03-07T05:40:56;36.80;;;25.05;;
34876;SDS011;21086;44.780;17.194;2023-03-07T05:43:23;33.33;;;22.45;;
34876;SDS011;21086;44.780;17.194;2023-03-07T05:45:50;31.75;;;22.88;;
34876;SDS011;21086;44.780;17.194;2023-03-07T05:48:17;29.48;;;20.08;;
34876;SDS011;21086;44.780;17.194;2023-03-07T05:50:44;32.78;;;21.90;;
34876;SDS011;21086;44.780;17.194;2023-03-07T05:53:11;36.78;;;23.30;;
34876;SDS011;21086;44.780;17.194;2023-03-07T05:55:38;36.30;;;24.40;;
34876;SDS011;21086;44.780;17.194;2023-03-07T05:58:04;34.95;;;21.08;;
34876;SDS011;21086;44.780;17.194;2023-03-07T06:00:31;34.58;;;24.00;;
34876;SDS011;21086;44.780;17.194;2023-03-07T06:03:00;34.75;;;22.35;;
34876;SDS011;21086;44.780;17.194;2023-03-07T06:05:30;32.58;;;22.73;;
34876;SDS011;21086;44.780;17.194;2023-03-07T06:07:57;28.55;;;20.20;;
34876;SDS011;21086;44.780;17.194;2023-03-07T06:10:24;27.90;;;19.92;;
34876;SDS011;21086;44.780;17.194;2023-03-07T06:12:52;32.83;;;20.90;;
34876;SDS011;21086;44.780;17.194;2023-03-07T06:15:20;44.50;;;28.48;;
34876;SDS011;21086;44.780;17.194;2023-03-07T06:17:49;36.45;;;24.77;;
34876;SDS011;21086;44.780;17.194;2023-03-07T06:20:18;36.80;;;23.60;;
34876;SDS011;21086;44.780;17.194;2023-03-07T06:22:46;34.00;;;24.58;;
34876;SDS011;21086;44.780;17.194;2023-03-07T06:25:13;28.33;;;20.73;;
34876;SDS011;21086;44.780;17.194;2023-03-07T06:27:42;26.88;;;19.83;;
34876;SDS011;21086;44.780;17.194;2023-03-07T06:30:09;25.73;;;17.88;;
34876;SDS011;21086;44.780;17.194;2023-03-07T06:32:37;26.50;;;18.45;;
34876;SDS011;21086;44.780;17.194;2023-03-07T06:35:05;27.73;;;18.13;;
34876;SDS011;21086;44.780;17.194;2023-03-07T06:37:32;25.00;;;15.88;;
34876;SDS011;21086;44.780;17.194;2023-03-07T06:39:59;25.83;;;15.50;;
34876;SDS011;21086;44.780;17.194;2023-03-07T06:42:26;22.25;;;16.20;;
34876;SDS011;21086;44.780;17.194;2023-03-07T06:44:53;22.23;;;15.25;;
34876;SDS011;21086;44.780;17.194;2023-03-07T06:47:19;24.77;;;19.52;;
34876;SDS011;21086;44.780;17.194;2023-03-07T06:49:46;26.90;;;19.38;;
34876;SDS011;21086;44.780;17.194;2023-03-07T06:52:14;26.63;;;20.15;;
34876;SDS011;21086;44.780;17.194;2023-03-07T06:54:41;28.15;;;20.05;;
34876;SDS011;21086;44.780;17.194;2023-03-07T06:57:07;31.15;;;21.27;;
34876;SDS011;21086;44.780;17.194;2023-03-07T06:59:34;30.90;;;20.83;;
34876;SDS011;21086;44.780;17.194;2023-03-07T07:02:02;27.05;;;18.65;;
34876;SDS011;21086;44.780;17.194;2023-03-07T07:04:31;27.58;;;17.42;;
34876;SDS011;21086;44.780;17.194;2023-03-07T07:06:58;33.40;;;20.95;;
34876;SDS011;21086;44.780;17.194;2023-03-07T07:09:25;36.40;;;21.42;;
34876;SDS011;21086;44.780;17.194;2023-03-07T07:11:54;31.63;;;23.48;;
34876;SDS011;21086;44.780;17.194;2023-03-07T07:14:21;40.33;;;29.58;;
34876;SDS011;21086;44.780;17.194;2023-03-07T07:16:49;36.13;;;26.75;;
34876;SDS011;21086;44.780;17.194;2023-03-07T07:19:16;47.55;;;36.42;;
34876;SDS011;21086;44.780;17.194;2023-03-07T07:21:43;54.00;;;36.22;;
34876;SDS011;21086;44.780;17.194;2023-03-07T07:24:12;45.03;;;34.75;;
34876;SDS011;21086;44.780;17.194;2023-03-07T07:26:40;43.88;;;31.50;;
34876;SDS011;21086;44.780;17.194;2023-03-07T07:29:06;37.97;;;28.70;;
34876;SDS011;21086;44.780;17.194;2023-03-07T07:31:33;38.13;;;28.10;;
34876;SDS011;21086;44.780;17.194;2023-03-07T07:34:00;39.15;;;31.08;;
34876;SDS011;21086;44.780;17.194;2023-03-07T07:36:28;45.05;;;34.20;;
34876;SDS011;21086;44.780;17.194;2023-03-07T07:38:55;34.25;;;28.10;;
34876;SDS011;21086;44.780;17.194;2023-03-07T07:41:22;36.53;;;27.40;;
34876;SDS011;21086;44.780;17.194;2023-03-07T07:43:51;35.78;;;27.45;;
34876;SDS011;21086;44.780;17.194;2023-03-07T07:46:18;28.20;;;23.95;;
34876;SDS011;21086;44.780;17.194;2023-03-07T07:48:46;32.50;;;26.02;;
34876;SDS011;21086;44.780;17.194;2023-03-07T07:51:13;31.27;;;25.20;;
34876;SDS011;21086;44.780;17.194;2023-03-07T07:53:40;36.17;;;25.80;;
34876;SDS011;21086;44.780;17.194;2023-03-07T07:56:07;32.72;;;24.98;;
34876;SDS011;21086;44.780;17.194;2023-03-07T07:58:35;29.88;;;24.23;;
34876;SDS011;21086;44.780;17.194;2023-03-07T08:01:18;32.85;;;22.77;;
34876;SDS011;21086;44.780;17.194;2023-03-07T08:03:46;29.90;;;23.60;;
34876;SDS011;21086;44.780;17.194;2023-03-07T08:06:17;27.77;;;21.30;;
34876;SDS011;21086;44.780;17.194;2023-03-07T08:08:45;26.50;;;21.05;;
34876;SDS011;21086;44.780;17.194;2023-03-07T08:11:13;29.45;;;21.30;;
34876;SDS011;21086;44.780;17.194;2023-03-07T08:13:41;26.98;;;21.52;;
34876;SDS011;21086;44.780;17.194;2023-03-07T08:16:12;35.33;;;23.23;;
34876;SDS011;21086;44.780;17.194;2023-03-07T08:18:51;34.13;;;25.35;;
34876;SDS011;21086;44.780;17.194;2023-03-07T08:21:19;25.80;;;21.58;;
34876;SDS011;21086;44.780;17.194;2023-03-07T08:23:47;33.28;;;22.55;;
34876;SDS011;21086;44.780;17.194;2023-03-07T08:26:14;27.70;;;22.00;;
34876;SDS011;21086;44.780;17.194;2023-03-07T08:28:45;30.35;;;23.83;;
34876;SDS011;21086;44.780;17.194;2023-03-07T08:31:14;29.23;;;23.83;;
34876;SDS011;21086;44.780;17.194;2023-03-07T08:33:45;32.10;;;24.30;;
34876;SDS011;21086;44.780;17.194;2023-03-07T08:36:13;39.42;;;24.00;;
34876;SDS011;21086;44.780;17.194;2023-03-07T08:38:40;31.25;;;22.67;;
34876;SDS011;21086;44.780;17.194;2023-03-07T08:41:08;33.47;;;24.10;;
34876;SDS011;21086;44.780;17.194;2023-03-07T08:43:36;37.63;;;24.70;;
34876;SDS011;21086;44.780;17.194;2023-03-07T08:46:05;31.38;;;23.30;;
34876;SDS011;21086;44.780;17.194;2023-03-07T08:48:32;25.50;;;22.50;;
34876;SDS011;21086;44.780;17.194;2023-03-07T08:51:04;34.97;;;25.10;;
34876;SDS011;21086;44.780;17.194;2023-03-07T08:53:33;29.98;;;24.20;;
34876;SDS011;21086;44.780;17.194;2023-03-07T08:55:59;31.23;;;24.33;;
34876;SDS011;21086;44.780;17.194;2023-03-07T08:58:30;36.60;;;23.67;;
34876;SDS011;21086;44.780;17.194;2023-03-07T09:00:57;37.63;;;24.60;;
34876;SDS011;21086;44.780;17.194;2023-03-07T09:03:24;27.95;;;24.08;;
34876;SDS011;21086;44.780;17.194;2023-03-07T09:05:51;30.42;;;22.45;;
34876;SDS011;21086;44.780;17.194;2023-03-07T09:08:18;27.00;;;21.58;;
34876;SDS011;21086;44.780;17.194;2023-03-07T09:10:46;27.42;;;21.75;;
34876;SDS011;21086;44.780;17.194;2023-03-07T09:13:13;25.45;;;19.83;;
34876;SDS011;21086;44.780;17.194;2023-03-07T09:15:42;28.10;;;17.85;;
34876;SDS011;21086;44.780;17.194;2023-03-07T09:18:10;21.30;;;16.52;;
34876;SDS011;21086;44.780;17.194;2023-03-07T09:20:37;18.98;;;14.05;;
34876;SDS011;21086;44.780;17.194;2023-03-07T09:23:05;16.55;;;10.73;;
34876;SDS011;21086;44.780;17.194;2023-03-07T09:25:32;16.05;;;9.13;;
34876;SDS011;21086;44.780;17.194;2023-03-07T09:27:59;8.77;;;4.90;;
34876;SDS011;21086;44.780;17.194;2023-03-07T09:30:26;6.82;;;4.63;;
34876;SDS011;21086;44.780;17.194;2023-03-07T09:32:54;4.25;;;2.88;;
34876;SDS011;21086;44.780;17.194;2023-03-07T09:35:22;3.08;;;2.00;;
34876;SDS011;21086;44.780;17.194;2023-03-07T09:37:49;2.88;;;1.80;;
34876;SDS011;21086;44.780;17.194;2023-03-07T09:40:18;1.80;;;1.15;;
34876;SDS011;21086;44.780;17.194;2023-03-07T09:43:09;3.63;;;1.30;;
34876;SDS011;21086;44.780;17.194;2023-03-07T09:48:27;2.65;;;1.08;;
34876;SDS011;21086;44.780;17.194;2023-03-07T09:51:03;1.60;;;0.95;;
34876;SDS011;21086;44.780;17.194;2023-03-07T09:53:47;1.90;;;1.13;;
34876;SDS011;21086;44.780;17.194;2023-03-07T09:56:23;2.65;;;1.23;;
34876;SDS011;21086;44.780;17.194;2023-03-07T09:59:02;1.50;;;0.93;;
34876;SDS011;21086;44.780;17.194;2023-03-07T10:01:48;2.10;;;0.70;;
34876;SDS011;21086;44.780;17.194;2023-03-07T10:04:26;1.67;;;0.70;;
34876;SDS011;21086;44.780;17.194;2023-03-07T10:07:00;1.75;;;0.70;;
34876;SDS011;21086;44.780;17.194;2023-03-07T10:09:29;2.03;;;0.98;;
34876;SDS011;21086;44.780;17.194;2023-03-07T10:17:03;2.08;;;1.02;;
34876;SDS011;21086;44.780;17.194;2023-03-07T10:27:43;4.05;;;1.17;;
34876;SDS011;21086;44.780;17.194;2023-03-07T10:30:14;1.75;;;1.08;;
34876;SDS011;21086;44.780;17.194;2023-03-07T10:32:45;3.85;;;1.00;;
34876;SDS011;21086;44.780;17.194;2023-03-07T10:35:15;0.85;;;0.50;;
34876;SDS011;21086;44.780;17.194;2023-03-07T10:37:50;1.63;;;0.77;;
34876;SDS011;21086;44.780;17.194;2023-03-07T10:40:35;4.40;;;1.20;;
34876;SDS011;21086;44.780;17.194;2023-03-07T10:43:24;2.60;;;1.02;;
34876;SDS011;21086;44.780;17.194;2023-03-07T10:54:11;2.58;;;0.63;;
34876;SDS011;21086;44.780;17.194;2023-03-07T10:56:53;0.88;;;0.43;;
34876;SDS011;21086;44.780;17.194;2023-03-07T10:59:28;1.00;;;0.50;;
34876;SDS011;21086;44.780;17.194;2023-03-07T11:01:59;1.95;;;0.90;;
34876;SDS011;21086;44.780;17.194;2023-03-07T11:04:28;1.80;;;0.98;;
34876;SDS011;21086;44.780;17.194;2023-03-07T11:07:20;2.20;;;0.70;;
34876;SDS011;21086;44.780;17.194;2023-03-07T11:09:49;2.70;;;1.00;;
34876;SDS011;21086;44.780;17.194;2023-03-07T11:12:18;3.92;;;0.88;;
34876;SDS011;21086;44.780;17.194;2023-03-07T11:14:47;5.22;;;0.90;;
34876;SDS011;21086;44.780;17.194;2023-03-07T11:19:47;1.55;;;0.85;;
34876;SDS011;21086;44.780;17.194;2023-03-07T11:22:31;0.93;;;0.40;;
34876;SDS011;21086;44.780;17.194;2023-03-07T11:25:07;1.33;;;0.70;;
34876;SDS011;21086;44.780;17.194;2023-03-07T11:27:46;2.50;;;1.10;;
34876;SDS011;21086;44.780;17.194;2023-03-07T11:30:20;0.98;;;0.50;;
34876;SDS011;21086;44.780;17.194;2023-03-07T11:33:14;1.92;;;0.70;;
34876;SDS011;21086;44.780;17.194;2023-03-07T11:38:50;2.85;;;0.90;;
34876;SDS011;21086;44.780;17.194;2023-03-07T11:49:58;1.13;;;0.88;;
34876;SDS011;21086;44.780;17.194;2023-03-07T11:52:44;2.15;;;0.65;;
34876;SDS011;21086;44.780;17.194;2023-03-07T12:10:04;2.55;;;1.00;;
34876;SDS011;21086;44.780;17.194;2023-03-07T12:20:26;1.38;;;0.43;;
34876;SDS011;21086;44.780;17.194;2023-03-07T12:25:46;3.13;;;0.50;;
34876;SDS011;21086;44.780;17.194;2023-03-07T12:28:18;1.70;;;0.70;;
34876;SDS011;21086;44.780;17.194;2023-03-07T12:33:28;1.90;;;0.60;;
34876;SDS011;21086;44.780;17.194;2023-03-07T12:36:10;0.85;;;0.60;;
34876;SDS011;21086;44.780;17.194;2023-03-07T12:38:59;1.23;;;0.60;;
34876;SDS011;21086;44.780;17.194;2023-03-07T12:44:31;0.95;;;0.40;;
34876;SDS011;21086;44.780;17.194;2023-03-07T12:47:18;2.17;;;0.80;;
34876;SDS011;21086;44.780;17.194;2023-03-07T12:49:50;1.08;;;0.50;;
34876;SDS011;21086;44.780;17.194;2023-03-07T12:55:15;1.23;;;0.70;;
34876;SDS011;21086;44.780;17.194;2023-03-07T12:57:49;2.17;;;0.70;;
34876;SDS011;21086;44.780;17.194;2023-03-07T13:00:29;1.17;;;0.70;;
34876;SDS011;21086;44.780;17.194;2023-03-07T13:03:01;1.45;;;0.75;;
34876;SDS011;21086;44.780;17.194;2023-03-07T13:05:32;2.28;;;1.00;;
34876;SDS011;21086;44.780;17.194;2023-03-07T13:08:02;1.80;;;1.00;;
34876;SDS011;21086;44.780;17.194;2023-03-07T13:10:32;2.40;;;0.80;;
34876;SDS011;21086;44.780;17.194;2023-03-07T13:12:59;2.17;;;0.88;;
34876;SDS011;21086;44.780;17.194;2023-03-07T13:18:03;2.65;;;0.85;;
34876;SDS011;21086;44.780;17.194;2023-03-07T13:21:05;2.38;;;1.17;;
34876;SDS011;21086;44.780;17.194;2023-03-07T13:24:25;2.55;;;1.52;;
34876;SDS011;21086;44.780;17.194;2023-03-07T13:26:58;3.90;;;1.60;;
34876;SDS011;21086;44.780;17.194;2023-03-07T13:38:01;1.13;;;0.65;;
34876;SDS011;21086;44.780;17.194;2023-03-07T13:40:50;1.98;;;0.50;;
34876;SDS011;21086;44.780;17.194;2023-03-07T13:48:59;1.00;;;0.47;;
34876;SDS011;21086;44.780;17.194;2023-03-07T13:51:05;2.10;;;0.80;;
34876;SDS011;21086;44.780;17.194;2023-03-07T13:53:44;2.63;;;0.60;;
34876;SDS011;21086;44.780;17.194;2023-03-07T14:01:59;1.90;;;0.80;;
34876;SDS011;21086;44.780;17.194;2023-03-07T14:05:02;4.28;;;0.60;;
34876;SDS011;21086;44.780;17.194;2023-03-07T14:07:33;1.85;;;0.60;;
34876;SDS011;21086;44.780;17.194;2023-03-07T14:10:10;1.40;;;0.60;;
34876;SDS011;21086;44.780;17.194;2023-03-07T14:26:49;2.60;;;1.25;;
34876;SDS011;21086;44.780;17.194;2023-03-07T14:29:23;1.77;;;0.60;;
34876;SDS011;21086;44.780;17.194;2023-03-07T14:31:52;1.02;;;0.50;;
34876;SDS011;21086;44.780;17.194;2023-03-07T14:34:29;1.50;;;0.70;;
34876;SDS011;21086;44.780;17.194;2023-03-07T14:36:58;1.65;;;0.95;;
34876;SDS011;21086;44.780;17.194;2023-03-07T14:39:47;1.60;;;1.08;;
34876;SDS011;21086;44.780;17.194;2023-03-07T14:45:05;1.20;;;0.60;;
34876;SDS011;21086;44.780;17.194;2023-03-07T14:47:49;4.72;;;1.20;;
34876;SDS011;21086;44.780;17.194;2023-03-07T14:50:20;3.05;;;0.90;;
34876;SDS011;21086;44.780;17.194;2023-03-07T14:52:52;3.53;;;1.60;;
34876;SDS011;21086;44.780;17.194;2023-03-07T14:55:34;2.67;;;1.50;;
34876;SDS011;21086;44.780;17.194;2023-03-07T14:58:03;3.75;;;1.63;;
34876;SDS011;21086;44.780;17.194;2023-03-07T15:00:31;2.97;;;2.20;;
34876;SDS011;21086;44.780;17.194;2023-03-07T15:03:02;1.15;;;0.75;;
34876;SDS011;21086;44.780;17.194;2023-03-07T15:08:25;2.47;;;1.42;;
34876;SDS011;21086;44.780;17.194;2023-03-07T15:14:04;2.17;;;1.00;;
34876;SDS011;21086;44.780;17.194;2023-03-07T15:16:35;2.00;;;0.98;;
34876;SDS011;21086;44.780;17.194;2023-03-07T15:21:50;3.88;;;2.58;;
34876;SDS011;21086;44.780;17.194;2023-03-07T15:24:28;1.23;;;0.95;;
34876;SDS011;21086;44.780;17.194;2023-03-07T15:26:58;1.92;;;1.23;;
34876;SDS011;21086;44.780;17.194;2023-03-07T15:29:27;3.28;;;1.67;;
34876;SDS011;21086;44.780;17.194;2023-03-07T15:31:57;1.48;;;0.93;;
34876;SDS011;21086;44.780;17.194;2023-03-07T15:34:29;3.75;;;1.80;;
34876;SDS011;21086;44.780;17.194;2023-03-07T15:39:57;3.38;;;1.95;;
34876;SDS011;21086;44.780;17.194;2023-03-07T15:42:25;2.00;;;1.30;;
34876;SDS011;21086;44.780;17.194;2023-03-07T15:44:54;6.32;;;3.95;;
34876;SDS011;21086;44.780;17.194;2023-03-07T15:47:23;6.50;;;2.10;;
34876;SDS011;21086;44.780;17.194;2023-03-07T15:49:51;3.38;;;1.30;;
34876;SDS011;21086;44.780;17.194;2023-03-07T15:52:24;3.38;;;1.30;;
34876;SDS011;21086;44.780;17.194;2023-03-07T15:54:55;3.00;;;1.20;;
34876;SDS011;21086;44.780;17.194;2023-03-07T15:57:25;1.83;;;1.20;;
34876;SDS011;21086;44.780;17.194;2023-03-07T16:04:58;2.47;;;1.10;;
34876;SDS011;21086;44.780;17.194;2023-03-07T16:07:27;2.10;;;1.25;;
34876;SDS011;21086;44.780;17.194;2023-03-07T16:09:54;3.53;;;1.48;;
34876;SDS011;21086;44.780;17.194;2023-03-07T16:12:21;4.18;;;1.27;;
34876;SDS011;21086;44.780;17.194;2023-03-07T16:14:50;1.75;;;1.35;;
34876;SDS011;21086;44.780;17.194;2023-03-07T16:17:29;3.15;;;2.10;;
34876;SDS011;21086;44.780;17.194;2023-03-07T16:19:59;2.00;;;1.35;;
34876;SDS011;21086;44.780;17.194;2023-03-07T16:22:27;4.32;;;2.58;;
34876;SDS011;21086;44.780;17.194;2023-03-07T16:24:56;2.90;;;1.90;;
34876;SDS011;21086;44.780;17.194;2023-03-07T16:27:26;6.18;;;2.28;;
34876;SDS011;21086;44.780;17.194;2023-03-07T16:29:53;3.67;;;1.88;;
34876;SDS011;21086;44.780;17.194;2023-03-07T16:32:20;4.15;;;2.17;;
34876;SDS011;21086;44.780;17.194;2023-03-07T16:34:48;3.45;;;2.58;;
34876;SDS011;21086;44.780;17.194;2023-03-07T16:37:15;4.38;;;2.67;;
34876;SDS011;21086;44.780;17.194;2023-03-07T16:39:42;2.47;;;1.50;;
34876;SDS011;21086;44.780;17.194;2023-03-07T16:42:14;2.35;;;1.73;;
34876;SDS011;21086;44.780;17.194;2023-03-07T16:44:46;3.80;;;1.50;;
34876;SDS011;21086;44.780;17.194;2023-03-07T16:47:15;4.50;;;1.70;;
34876;SDS011;21086;44.780;17.194;2023-03-07T16:49:43;3.97;;;1.67;;
34876;SDS011;21086;44.780;17.194;2023-03-07T16:52:14;4.20;;;2.08;;
34876;SDS011;21086;44.780;17.194;2023-03-07T16:54:41;4.70;;;1.90;;
34876;SDS011;21086;44.780;17.194;2023-03-07T16:57:14;4.13;;;1.80;;
34876;SDS011;21086;44.780;17.194;2023-03-07T16:59:44;2.70;;;1.67;;
34876;SDS011;21086;44.780;17.194;2023-03-07T17:02:16;4.55;;;2.45;;
34876;SDS011;21086;44.780;17.194;2023-03-07T17:04:44;3.30;;;1.75;;
34876;SDS011;21086;44.780;17.194;2023-03-07T17:07:14;4.63;;;2.17;;
34876;SDS011;21086;44.780;17.194;2023-03-07T17:09:47;5.65;;;3.45;;
34876;SDS011;21086;44.780;17.194;2023-03-07T17:12:17;3.08;;;1.70;;
34876;SDS011;21086;44.780;17.194;2023-03-07T17:14:50;3.13;;;2.10;;
34876;SDS011;21086;44.780;17.194;2023-03-07T17:17:28;3.05;;;1.77;;
34876;SDS011;21086;44.780;17.194;2023-03-07T17:19:58;5.25;;;2.78;;
34876;SDS011;21086;44.780;17.194;2023-03-07T17:22:26;3.72;;;2.15;;
34876;SDS011;21086;44.780;17.194;2023-03-07T17:24:53;5.40;;;3.50;;
34876;SDS011;21086;44.780;17.194;2023-03-07T17:27:20;3.08;;;1.85;;
34876;SDS011;21086;44.780;17.194;2023-03-07T17:29:48;3.13;;;1.92;;
34876;SDS011;21086;44.780;17.194;2023-03-07T17:32:17;3.63;;;1.65;;
34876;SDS011;21086;44.780;17.194;2023-03-07T17:34:44;2.45;;;1.55;;
34876;SDS011;21086;44.780;17.194;2023-03-07T17:37:14;4.20;;;1.90;;
34876;SDS011;21086;44.780;17.194;2023-03-07T17:39:41;4.32;;;2.00;;